Austin, Texas
Traffic Map
Current Weather Conditions
Austin, Texas
Overcast
Overcast
50°
Feels Like: 50°
Wind Chill: 50° Ceiling: 800
Heat Index: 50° Visibility: 8mi
Dew Point: 48° Wind: 7mph
Humidity: 93% Direction: 360° (N)
Pressure: 30.06in Gusts: 0mph
Raw Report DataKATT 190751Z AUTO 36006KT 8SM BKN008 OVC026 10/09 A3006 RMK AO2 RAE10 SLP179 P0000 T01000089
Traffic Incident Summary
Active as of:
Severity:
Category:
InformationThere was an issue retrieving the traffic information for this location. Please try a different location or try again shortly.
Advertisements
Track Severe Weather on mobile